createdAt,value
2022-07-26T00:00:33.672Z,444
2022-07-26T00:01:28.002Z,454
2022-07-26T00:02:18.605Z,445
2022-07-26T00:03:09.425Z,423
2022-07-26T00:04:01.327Z,426
2022-07-26T00:04:53.249Z,427
2022-07-26T00:05:45.154Z,440
2022-07-26T00:06:37.072Z,438
2022-07-26T00:07:28.971Z,425
2022-07-26T00:08:20.814Z,436
2022-07-26T00:09:12.793Z,425
2022-07-26T00:10:04.706Z,415
2022-07-26T00:10:56.616Z,426
2022-07-26T00:11:48.538Z,424
2022-07-26T00:12:40.444Z,422
2022-07-26T00:13:32.359Z,425
2022-07-26T00:14:24.257Z,433
2022-07-26T00:15:16.180Z,431
2022-07-26T00:16:08.133Z,421
2022-07-26T00:17:00.004Z,425
2022-07-26T00:17:51.909Z,430
2022-07-26T00:18:43.820Z,420
2022-07-26T00:19:35.723Z,434
2022-07-26T00:20:28.318Z,425
2022-07-26T00:21:19.542Z,447
2022-07-26T00:22:11.455Z,428
2022-07-26T00:23:03.359Z,435
2022-07-26T00:23:55.284Z,427
2022-07-26T00:24:47.179Z,446
2022-07-26T00:25:39.095Z,430
2022-07-26T00:26:30.921Z,423
2022-07-26T00:27:22.906Z,424
2022-07-26T00:28:14.797Z,425
2022-07-26T00:29:06.974Z,414
2022-07-26T00:29:58.646Z,418
2022-07-26T00:30:50.514Z,423
2022-07-26T00:31:42.527Z,437
2022-07-26T00:32:34.363Z,431
2022-07-26T00:33:26.256Z,419
2022-07-26T00:34:18.174Z,422
2022-07-26T00:35:10.074Z,420
2022-07-26T00:36:02.002Z,424
2022-07-26T00:36:53.916Z,411
2022-07-26T00:37:45.829Z,413
2022-07-26T00:38:37.716Z,407
2022-07-26T00:39:29.645Z,408
2022-07-26T00:40:21.595Z,415
2022-07-26T00:41:13.462Z,413
2022-07-26T00:42:05.354Z,412
2022-07-26T00:42:57.284Z,407
2022-07-26T00:43:49.180Z,408
2022-07-26T00:44:41.077Z,408
2022-07-26T00:45:33.022Z,405
2022-07-26T00:46:24.978Z,406
2022-07-26T00:47:16.852Z,406
2022-07-26T00:48:08.771Z,410
2022-07-26T00:49:00.712Z,412
2022-07-26T00:49:52.630Z,406
2022-07-26T00:50:44.519Z,407
2022-07-26T00:51:36.442Z,406
2022-07-26T00:52:28.353Z,412
2022-07-26T00:53:20.271Z,413
2022-07-26T00:54:12.171Z,413
2022-07-26T00:55:04.107Z,428
2022-07-26T00:55:55.998Z,420
2022-07-26T00:56:52.054Z,408
2022-07-26T00:57:39.831Z,411
2022-07-26T00:58:31.749Z,418
2022-07-26T00:59:23.664Z,414
2022-07-26T01:00:15.582Z,417
2022-07-26T01:01:07.542Z,419
2022-07-26T01:01:59.522Z,410
2022-07-26T01:02:51.408Z,410
2022-07-26T01:03:43.237Z,412
2022-07-26T01:04:35.127Z,409
2022-07-26T01:05:27.068Z,399
2022-07-26T01:06:20.207Z,402
2022-07-26T01:07:14.727Z,401
2022-07-26T01:08:02.787Z,401
2022-07-26T01:08:54.707Z,402
2022-07-26T01:09:46.620Z,409
2022-07-26T01:10:38.540Z,409
2022-07-26T01:11:30.485Z,412
2022-07-26T01:12:22.310Z,405
2022-07-26T01:13:14.286Z,417
2022-07-26T01:14:06.493Z,405
2022-07-26T01:14:58.123Z,409
2022-07-26T01:15:50.138Z,409
2022-07-26T01:16:41.946Z,427
2022-07-26T01:17:34.360Z,422
2022-07-26T01:18:25.763Z,444
2022-07-26T01:19:17.716Z,416
2022-07-26T01:20:09.599Z,422
2022-07-26T01:21:01.514Z,422
2022-07-26T01:21:53.411Z,414
2022-07-26T01:22:45.336Z,419
2022-07-26T01:23:37.236Z,407
2022-07-26T01:24:29.174Z,407
2022-07-26T01:25:21.018Z,408
2022-07-26T01:26:13.877Z,412
2022-07-26T01:27:04.870Z,411
2022-07-26T01:27:56.789Z,425
2022-07-26T01:28:48.711Z,437
2022-07-26T01:29:40.592Z,435
2022-07-26T01:30:32.428Z,426
2022-07-26T01:31:24.488Z,432
2022-07-26T01:32:16.330Z,450
2022-07-26T01:33:08.235Z,433
2022-07-26T01:34:00.117Z,418
2022-07-26T01:34:52.041Z,416
2022-07-26T01:35:43.938Z,434
2022-07-26T01:36:35.845Z,428
2022-07-26T01:37:27.737Z,424
2022-07-26T01:38:19.642Z,414
2022-07-26T01:39:11.554Z,414
2022-07-26T01:40:03.374Z,404
2022-07-26T01:40:55.349Z,401
2022-07-26T01:41:47.273Z,410
2022-07-26T01:42:39.166Z,413
2022-07-26T01:43:31.059Z,429
2022-07-26T01:44:23.020Z,434
2022-07-26T01:45:14.904Z,421
2022-07-26T01:46:06.823Z,417
2022-07-26T01:46:58.713Z,409
2022-07-26T01:47:50.605Z,410
2022-07-26T01:48:42.581Z,413
2022-07-26T01:49:34.426Z,410
2022-07-26T01:50:26.338Z,413
2022-07-26T01:51:18.238Z,415
2022-07-26T01:52:10.146Z,413
2022-07-26T01:53:02.058Z,407
2022-07-26T01:53:53.958Z,411
2022-07-26T01:54:45.858Z,413
2022-07-26T01:55:37.780Z,411
2022-07-26T01:56:29.671Z,410
2022-07-26T01:57:21.636Z,415
2022-07-26T01:58:13.498Z,417
2022-07-26T01:59:05.429Z,419
2022-07-26T01:59:57.301Z,416
2022-07-26T02:00:49.229Z,418
2022-07-26T02:01:41.128Z,424
2022-07-26T02:02:33.214Z,419
2022-07-26T02:03:24.915Z,414
2022-07-26T02:04:16.841Z,412
2022-07-26T02:05:08.727Z,413
2022-07-26T02:06:00.672Z,415
2022-07-26T02:06:52.538Z,419
2022-07-26T02:07:44.827Z,419
2022-07-26T02:08:36.347Z,426
2022-07-26T02:09:34.092Z,428
2022-07-26T02:10:20.153Z,422
2022-07-26T02:11:12.075Z,417
2022-07-26T02:12:03.961Z,423
2022-07-26T02:12:55.884Z,419
2022-07-26T02:13:52.704Z,418
2022-07-26T02:14:39.697Z,420
2022-07-26T02:15:31.628Z,410
2022-07-26T02:16:23.561Z,415
2022-07-26T02:17:15.389Z,412
2022-07-26T02:18:07.310Z,407
2022-07-26T02:18:59.200Z,407
2022-07-26T02:19:51.062Z,408
2022-07-26T02:20:43.018Z,411
2022-07-26T02:21:34.920Z,410
2022-07-26T02:22:26.822Z,419
2022-07-26T02:23:18.734Z,424
2022-07-26T02:24:10.937Z,422
2022-07-26T02:25:05.245Z,420
2022-07-26T02:25:54.435Z,418
2022-07-26T02:26:46.373Z,414
2022-07-26T02:27:38.247Z,430
2022-07-26T02:28:30.176Z,440
2022-07-26T02:29:22.062Z,434
2022-07-26T02:30:13.963Z,426
2022-07-26T02:31:05.908Z,430
2022-07-26T02:31:57.760Z,440
2022-07-26T02:32:49.640Z,431
2022-07-26T02:33:41.560Z,421
2022-07-26T02:34:34.051Z,416
2022-07-26T02:35:25.340Z,421
2022-07-26T02:36:17.222Z,421
2022-07-26T02:37:09.116Z,415
2022-07-26T02:38:00.982Z,410
2022-07-26T02:38:52.903Z,412
2022-07-26T02:39:44.834Z,410
2022-07-26T02:40:36.692Z,411
2022-07-26T02:41:28.591Z,414
2022-07-26T02:42:20.475Z,414
2022-07-26T02:43:12.367Z,408
2022-07-26T02:44:04.446Z,414
2022-07-26T02:44:56.152Z,410
2022-07-26T02:46:01.529Z,403
2022-07-26T02:46:39.998Z,414
2022-07-26T02:47:31.866Z,424
2022-07-26T02:48:23.750Z,424
2022-07-26T02:49:15.688Z,438
2022-07-26T02:50:07.552Z,429
2022-07-26T02:50:59.445Z,430
2022-07-26T02:51:51.258Z,420
2022-07-26T02:52:43.286Z,422
2022-07-26T02:53:35.146Z,410
2022-07-26T02:54:27.023Z,419
2022-07-26T02:55:18.923Z,423
2022-07-26T02:56:10.784Z,417
2022-07-26T02:57:02.712Z,422
2022-07-26T02:57:54.631Z,415
2022-07-26T02:58:46.526Z,411
2022-07-26T02:59:38.432Z,412
2022-07-26T03:00:30.306Z,412
2022-07-26T03:01:22.309Z,413
2022-07-26T03:02:14.220Z,413
2022-07-26T03:03:06.074Z,414
2022-07-26T03:03:57.909Z,410
2022-07-26T03:04:49.810Z,415
2022-07-26T03:05:41.711Z,405
2022-07-26T03:06:33.623Z,409
2022-07-26T03:07:25.509Z,408
2022-07-26T03:08:17.422Z,436
2022-07-26T03:09:09.306Z,426
2022-07-26T03:10:01.202Z,426
2022-07-26T03:10:53.110Z,416
2022-07-26T03:11:45.032Z,413
2022-07-26T03:12:36.915Z,422
2022-07-26T03:13:28.837Z,419
2022-07-26T03:14:20.719Z,439
2022-07-26T03:15:12.641Z,454
2022-07-26T03:16:04.589Z,448
2022-07-26T03:16:56.434Z,460
2022-07-26T03:17:48.318Z,442
2022-07-26T03:18:40.228Z,432
2022-07-26T03:19:32.113Z,435
2022-07-26T03:20:24.022Z,438
2022-07-26T03:21:15.950Z,447
2022-07-26T03:22:07.810Z,425
2022-07-26T03:22:59.713Z,434
2022-07-26T03:23:51.520Z,431
2022-07-26T03:24:43.488Z,424
2022-07-26T03:25:37.602Z,428
2022-07-26T03:26:27.279Z,450
2022-07-26T03:27:19.186Z,424
2022-07-26T03:28:13.661Z,424
2022-07-26T03:29:02.969Z,415
2022-07-26T03:29:54.850Z,421
2022-07-26T03:30:46.903Z,422
2022-07-26T03:31:38.685Z,421
2022-07-26T03:32:30.546Z,415
2022-07-26T03:33:22.444Z,418
2022-07-26T03:34:14.362Z,416
2022-07-26T03:35:06.253Z,421
2022-07-26T03:35:58.192Z,412
2022-07-26T03:36:50.049Z,415
2022-07-26T03:37:45.126Z,422
2022-07-26T03:38:33.853Z,418
2022-07-26T03:39:25.761Z,421
2022-07-26T03:40:17.660Z,412
2022-07-26T03:41:09.580Z,413
2022-07-26T03:42:01.374Z,424
2022-07-26T03:42:53.372Z,423
2022-07-26T03:43:45.278Z,434
2022-07-26T03:44:37.165Z,441
2022-07-26T03:45:29.051Z,420
2022-07-26T03:46:20.947Z,425
2022-07-26T03:47:12.847Z,422
2022-07-26T03:48:04.752Z,439
2022-07-26T03:48:56.707Z,437
2022-07-26T03:49:48.538Z,428
2022-07-26T03:50:40.428Z,432
2022-07-26T03:51:32.332Z,428
2022-07-26T03:52:24.212Z,437
2022-07-26T03:53:16.114Z,428
2022-07-26T03:54:08.242Z,417
2022-07-26T03:54:59.898Z,425
2022-07-26T03:55:51.666Z,426
2022-07-26T03:56:43.704Z,426
2022-07-26T03:57:35.562Z,430
2022-07-26T03:58:27.469Z,420
2022-07-26T03:59:19.376Z,418
2022-07-26T04:00:11.202Z,424
2022-07-26T04:01:03.173Z,414
2022-07-26T04:01:55.137Z,431
2022-07-26T04:02:47.037Z,435
2022-07-26T04:03:38.827Z,421
2022-07-26T04:04:30.715Z,419
2022-07-26T04:05:23.689Z,424
2022-07-26T04:06:14.502Z,437
2022-07-26T04:07:06.389Z,417
2022-07-26T04:07:58.278Z,417
2022-07-26T04:08:50.199Z,415
2022-07-26T04:09:42.062Z,405
2022-07-26T04:10:33.979Z,425
2022-07-26T04:11:27.663Z,418
2022-07-26T04:12:17.782Z,418
2022-07-26T04:13:09.661Z,419
2022-07-26T04:14:01.554Z,417
2022-07-26T04:14:53.457Z,419
2022-07-26T04:15:45.358Z,431
2022-07-26T04:16:42.899Z,431
2022-07-26T04:17:29.155Z,448
2022-07-26T04:18:20.952Z,435
2022-07-26T04:19:12.953Z,442
2022-07-26T04:20:04.859Z,428
2022-07-26T04:20:56.719Z,437
2022-07-26T04:21:48.604Z,442
2022-07-26T04:22:40.533Z,432
2022-07-26T04:23:32.369Z,435
2022-07-26T04:24:25.309Z,436
2022-07-26T04:25:16.169Z,426
2022-07-26T04:26:08.052Z,424
2022-07-26T04:26:59.920Z,425
2022-07-26T04:27:51.830Z,432
2022-07-26T04:28:43.708Z,426
2022-07-26T04:29:35.614Z,422
2022-07-26T04:30:27.528Z,412
2022-07-26T04:31:19.424Z,418
2022-07-26T04:32:11.192Z,425
2022-07-26T04:33:03.193Z,439
2022-07-26T04:33:55.051Z,443
2022-07-26T04:34:46.947Z,455
2022-07-26T04:35:38.851Z,437
2022-07-26T04:36:30.750Z,421
2022-07-26T04:37:22.591Z,421
2022-07-26T04:38:14.492Z,430
2022-07-26T04:39:06.359Z,423
2022-07-26T04:39:58.264Z,427
2022-07-26T04:40:50.146Z,422
2022-07-26T04:41:42.050Z,429
2022-07-26T04:42:33.918Z,437
2022-07-26T04:43:25.822Z,438
2022-07-26T04:44:17.690Z,436
2022-07-26T04:45:09.604Z,424
2022-07-26T04:46:01.483Z,422
2022-07-26T04:46:53.372Z,419
2022-07-26T04:47:45.244Z,420
2022-07-26T04:48:37.198Z,426
2022-07-26T04:49:29.000Z,431
2022-07-26T04:50:20.895Z,424
2022-07-26T04:51:12.830Z,415
2022-07-26T04:52:04.671Z,419
2022-07-26T04:52:56.535Z,420
2022-07-26T04:53:48.437Z,420
2022-07-26T04:54:40.304Z,420
2022-07-26T04:55:32.199Z,424
2022-07-26T04:56:24.091Z,433
2022-07-26T04:57:15.980Z,425
2022-07-26T04:58:07.982Z,420
2022-07-26T04:58:59.746Z,428
2022-07-26T05:00:03.630Z,450
2022-07-26T05:01:08.610Z,441
2022-07-26T05:01:35.406Z,429
2022-07-26T05:02:27.420Z,427
2022-07-26T05:03:19.247Z,430
2022-07-26T05:04:11.337Z,420
2022-07-26T05:05:02.831Z,420
2022-07-26T05:05:54.795Z,437
2022-07-26T05:06:46.661Z,432
2022-07-26T05:07:38.561Z,454
2022-07-26T05:08:30.419Z,445
2022-07-26T05:09:22.310Z,441
2022-07-26T05:10:14.167Z,443
2022-07-26T05:11:06.066Z,445
2022-07-26T05:11:57.926Z,437
2022-07-26T05:12:49.808Z,446
2022-07-26T05:13:41.637Z,432
2022-07-26T05:14:33.556Z,433
2022-07-26T05:15:25.426Z,416
2022-07-26T05:16:17.347Z,416
2022-07-26T05:17:10.509Z,427
2022-07-26T05:18:01.033Z,445
2022-07-26T05:18:52.955Z,442
2022-07-26T05:19:48.811Z,444
2022-07-26T05:20:36.680Z,430
2022-07-26T05:21:28.572Z,436
2022-07-26T05:22:20.429Z,428
2022-07-26T05:23:12.320Z,423
2022-07-26T05:24:04.175Z,417
2022-07-26T05:24:56.074Z,419
2022-07-26T05:25:47.933Z,420
2022-07-26T05:26:39.809Z,421
2022-07-26T05:27:31.650Z,425
2022-07-26T05:28:23.570Z,425
2022-07-26T05:29:15.484Z,421
2022-07-26T05:30:07.336Z,420
2022-07-26T05:30:59.290Z,422
2022-07-26T05:31:51.046Z,437
2022-07-26T05:32:42.978Z,433
2022-07-26T05:33:34.861Z,444
2022-07-26T05:34:26.724Z,442
2022-07-26T05:35:18.623Z,431
2022-07-26T05:36:10.494Z,426
2022-07-26T05:37:02.404Z,416
2022-07-26T05:37:54.282Z,414
2022-07-26T05:38:46.159Z,416
2022-07-26T05:39:38.045Z,427
2022-07-26T05:40:29.931Z,426
2022-07-26T05:41:21.842Z,427
2022-07-26T05:42:13.710Z,424
2022-07-26T05:43:05.588Z,421
2022-07-26T05:43:57.521Z,417
2022-07-26T05:44:49.363Z,428
2022-07-26T05:45:41.302Z,433
2022-07-26T05:46:33.266Z,422
2022-07-26T05:47:25.062Z,430
2022-07-26T05:48:16.920Z,427
2022-07-26T05:49:08.872Z,430
2022-07-26T05:50:00.700Z,435
2022-07-26T05:50:52.597Z,433
2022-07-26T05:51:44.477Z,433
2022-07-26T05:52:36.391Z,451
2022-07-26T05:53:28.253Z,441
2022-07-26T05:54:20.155Z,439
2022-07-26T05:55:12.042Z,439
2022-07-26T05:56:03.941Z,443
2022-07-26T05:56:55.813Z,450
2022-07-26T05:57:49.796Z,450
2022-07-26T05:58:39.592Z,455
2022-07-26T05:59:31.442Z,445
2022-07-26T06:00:23.358Z,447
2022-07-26T06:01:15.246Z,431
2022-07-26T06:02:07.152Z,428
2022-07-26T06:02:59.248Z,427
2022-07-26T06:03:50.947Z,437
2022-07-26T06:04:42.814Z,428
2022-07-26T06:05:34.634Z,416
2022-07-26T06:06:26.524Z,442
2022-07-26T06:07:18.413Z,447
2022-07-26T06:08:10.285Z,443
2022-07-26T06:09:02.070Z,460
2022-07-26T06:09:54.067Z,438
2022-07-26T06:10:45.910Z,437
2022-07-26T06:11:37.793Z,431
2022-07-26T06:12:29.685Z,419
2022-07-26T06:13:21.470Z,422
2022-07-26T06:14:14.004Z,420
2022-07-26T06:15:05.320Z,419
2022-07-26T06:15:57.187Z,424
2022-07-26T06:16:49.136Z,447
2022-07-26T06:17:40.948Z,448
2022-07-26T06:18:32.841Z,433
2022-07-26T06:19:24.700Z,440
2022-07-26T06:20:16.599Z,434
2022-07-26T06:21:08.459Z,434
2022-07-26T06:22:00.357Z,415
2022-07-26T06:22:52.236Z,421
2022-07-26T06:23:44.121Z,423
2022-07-26T06:24:36.016Z,412
2022-07-26T06:25:27.876Z,414
2022-07-26T06:26:19.751Z,410
2022-07-26T06:27:11.563Z,423
2022-07-26T06:28:03.515Z,446
2022-07-26T06:28:55.409Z,431
2022-07-26T06:29:47.281Z,433
2022-07-26T06:30:39.169Z,432
2022-07-26T06:31:31.211Z,443
2022-07-26T06:32:22.923Z,444
2022-07-26T06:33:14.776Z,433
2022-07-26T06:34:06.997Z,431
2022-07-26T06:34:58.521Z,455
2022-07-26T06:35:50.409Z,430
2022-07-26T06:36:42.290Z,418
2022-07-26T06:37:34.159Z,425
2022-07-26T06:38:26.020Z,418
2022-07-26T06:39:17.902Z,419
2022-07-26T06:40:09.778Z,415
2022-07-26T06:41:01.585Z,418
2022-07-26T06:41:53.529Z,422
2022-07-26T06:42:45.431Z,433
2022-07-26T06:43:37.290Z,436
2022-07-26T06:44:29.184Z,426
2022-07-26T06:45:21.063Z,422
2022-07-26T06:46:13.046Z,427
2022-07-26T06:47:04.804Z,425
2022-07-26T06:47:56.716Z,420
2022-07-26T06:48:52.744Z,422
2022-07-26T06:49:40.496Z,425
2022-07-26T06:50:32.330Z,416
2022-07-26T06:51:24.257Z,422
2022-07-26T06:52:16.110Z,416
2022-07-26T06:53:07.996Z,424
2022-07-26T06:53:59.888Z,417
2022-07-26T06:54:51.681Z,416
2022-07-26T06:55:43.656Z,435
2022-07-26T06:56:35.556Z,431
2022-07-26T06:57:27.414Z,428
2022-07-26T06:58:19.366Z,431
2022-07-26T06:59:11.169Z,428
2022-07-26T07:00:03.102Z,426
2022-07-26T07:00:55.042Z,426
2022-07-26T07:01:59.304Z,429
2022-07-26T07:02:38.740Z,425
2022-07-26T07:03:30.625Z,428
2022-07-26T07:04:22.523Z,427
2022-07-26T07:05:14.508Z,425
2022-07-26T07:06:06.273Z,415
2022-07-26T07:06:58.155Z,411
2022-07-26T07:07:50.034Z,415
2022-07-26T07:08:41.867Z,416
2022-07-26T07:09:33.892Z,426
2022-07-26T07:10:25.711Z,422
2022-07-26T07:11:17.970Z,423
2022-07-26T07:12:10.608Z,412
2022-07-26T07:13:01.261Z,414
2022-07-26T07:13:53.258Z,418
2022-07-26T07:14:45.152Z,411
2022-07-26T07:15:37.041Z,412
2022-07-26T07:16:28.926Z,422
2022-07-26T07:17:20.819Z,443
2022-07-26T07:18:12.695Z,449
2022-07-26T07:19:04.594Z,442
2022-07-26T07:19:56.468Z,431
2022-07-26T07:20:48.374Z,428
2022-07-26T07:21:40.267Z,435
2022-07-26T07:22:32.152Z,433
2022-07-26T07:23:24.028Z,441
2022-07-26T07:24:15.923Z,425
2022-07-26T07:25:07.810Z,432
2022-07-26T07:25:59.706Z,423
2022-07-26T07:26:51.527Z,431
2022-07-26T07:27:43.482Z,416
2022-07-26T07:28:35.354Z,429
2022-07-26T07:29:27.253Z,437
2022-07-26T07:30:19.122Z,433
2022-07-26T07:31:11.054Z,435
2022-07-26T07:32:03.387Z,437
2022-07-26T07:32:54.799Z,427
2022-07-26T07:33:53.539Z,421
2022-07-26T07:34:38.584Z,416
2022-07-26T07:35:31.916Z,425
2022-07-26T07:36:22.343Z,436
2022-07-26T07:37:14.226Z,426
2022-07-26T07:38:06.094Z,431
2022-07-26T07:39:00.820Z,428
2022-07-26T07:39:50.191Z,432
2022-07-26T07:40:41.724Z,426
2022-07-26T07:41:33.695Z,424
2022-07-26T07:42:25.568Z,436
2022-07-26T07:43:17.479Z,440
2022-07-26T07:44:09.775Z,434
2022-07-26T07:45:01.266Z,432
2022-07-26T07:45:53.142Z,441
2022-07-26T07:46:45.074Z,444
2022-07-26T07:47:36.924Z,435
2022-07-26T07:48:28.881Z,432
2022-07-26T07:49:20.776Z,429
2022-07-26T07:50:12.610Z,433
2022-07-26T07:51:04.504Z,427
2022-07-26T07:51:56.370Z,438
2022-07-26T07:52:48.254Z,430
2022-07-26T07:53:40.161Z,430
2022-07-26T07:54:32.035Z,425
2022-07-26T07:55:41.006Z,430
2022-07-26T07:56:15.845Z,422
2022-07-26T07:57:07.735Z,440
2022-07-26T07:57:59.597Z,437
2022-07-26T07:58:52.196Z,441
2022-07-26T07:59:43.387Z,441
2022-07-26T08:00:35.408Z,435
2022-07-26T08:01:40.367Z,421
2022-07-26T08:02:19.067Z,421
2022-07-26T08:03:10.942Z,422
2022-07-26T08:04:02.949Z,428
2022-07-26T08:04:54.730Z,422
2022-07-26T08:05:46.626Z,421
2022-07-26T08:06:40.932Z,418
2022-07-26T08:07:33.047Z,419
2022-07-26T08:08:22.825Z,420
2022-07-26T08:09:14.404Z,428
2022-07-26T08:10:06.089Z,435
2022-07-26T08:10:58.006Z,423
2022-07-26T08:11:50.946Z,418
2022-07-26T08:12:41.735Z,420
2022-07-26T08:13:33.682Z,421
2022-07-26T08:14:25.591Z,424
2022-07-26T08:15:17.474Z,423
2022-07-26T08:16:09.689Z,425
2022-07-26T08:17:01.500Z,423
2022-07-26T08:17:54.052Z,425
2022-07-26T08:18:56.147Z,423
2022-07-26T08:19:41.550Z,422
2022-07-26T08:20:28.903Z,422
2022-07-26T08:21:20.825Z,418
2022-07-26T08:22:12.714Z,411
2022-07-26T08:23:04.641Z,418
2022-07-26T08:23:56.532Z,412
2022-07-26T08:24:48.455Z,411
2022-07-26T08:25:55.156Z,406
2022-07-26T08:26:32.281Z,409
2022-07-26T08:27:24.177Z,407
2022-07-26T08:28:37.592Z,408
2022-07-26T08:29:08.004Z,412
2022-07-26T08:29:59.925Z,410
2022-07-26T08:30:51.762Z,413
2022-07-26T08:31:43.777Z,408
2022-07-26T08:32:35.659Z,407
2022-07-26T08:33:27.587Z,408
2022-07-26T08:34:19.473Z,408
2022-07-26T08:35:16.997Z,416
2022-07-26T08:36:03.289Z,413
2022-07-26T08:37:16.131Z,425
2022-07-26T08:37:47.103Z,433
2022-07-26T08:38:39.011Z,431
2022-07-26T08:39:30.889Z,424
2022-07-26T08:40:22.802Z,423
2022-07-26T08:41:14.679Z,425
2022-07-26T08:42:06.578Z,425
2022-07-26T08:42:58.468Z,421
2022-07-26T08:43:52.876Z,425
2022-07-26T08:44:42.227Z,414
2022-07-26T08:45:34.110Z,406
2022-07-26T08:46:27.352Z,414
2022-07-26T08:47:17.879Z,422
2022-07-26T08:48:18.448Z,423
2022-07-26T08:49:01.628Z,427
2022-07-26T08:49:53.471Z,419
2022-07-26T08:50:45.379Z,412
2022-07-26T08:51:37.243Z,418
2022-07-26T08:52:29.109Z,418
2022-07-26T08:53:20.981Z,411
2022-07-26T08:54:12.788Z,409
2022-07-26T08:55:04.728Z,413
2022-07-26T08:56:07.064Z,415
2022-07-26T08:56:48.482Z,415
2022-07-26T08:57:40.405Z,411
2022-07-26T08:58:32.250Z,403
2022-07-26T08:59:24.549Z,397
2022-07-26T09:00:16.097Z,394
2022-07-26T09:01:08.170Z,403
2022-07-26T09:01:59.749Z,398
2022-07-26T09:02:51.566Z,398
2022-07-26T09:03:43.573Z,401
2022-07-26T09:04:37.552Z,400
2022-07-26T09:05:27.280Z,397
2022-07-26T09:06:19.188Z,398
2022-07-26T09:07:10.941Z,399
2022-07-26T09:08:02.939Z,407
2022-07-26T09:08:54.800Z,409
2022-07-26T09:09:46.691Z,413
2022-07-26T09:10:39.354Z,398
2022-07-26T09:11:30.469Z,399
2022-07-26T09:12:22.335Z,392
2022-07-26T09:13:14.245Z,394
2022-07-26T09:14:06.098Z,395
2022-07-26T09:14:57.988Z,396
2022-07-26T09:15:49.884Z,397
2022-07-26T09:16:41.769Z,387
2022-07-26T09:17:33.620Z,395
2022-07-26T09:18:25.535Z,402
2022-07-26T09:19:17.388Z,401
2022-07-26T09:20:09.310Z,401
2022-07-26T09:21:01.158Z,400
2022-07-26T09:21:53.055Z,406
2022-07-26T09:22:44.920Z,407
2022-07-26T09:23:36.805Z,399
2022-07-26T09:24:28.689Z,390
2022-07-26T09:25:20.572Z,402
2022-07-26T09:26:12.446Z,401
2022-07-26T09:27:04.339Z,399
2022-07-26T09:27:56.218Z,393
2022-07-26T09:28:48.121Z,396
2022-07-26T09:29:39.976Z,392
2022-07-26T09:30:31.817Z,392
2022-07-26T09:31:23.828Z,394
2022-07-26T09:32:15.644Z,389
2022-07-26T09:33:07.504Z,387
2022-07-26T09:33:59.417Z,391
2022-07-26T09:34:53.411Z,388
2022-07-26T09:35:50.690Z,389
2022-07-26T09:36:35.094Z,400
2022-07-26T09:37:26.934Z,394
2022-07-26T09:38:18.842Z,395
2022-07-26T09:39:11.174Z,392
2022-07-26T09:40:02.596Z,388
2022-07-26T09:40:54.481Z,394
2022-07-26T09:41:49.361Z,392
2022-07-26T09:42:38.276Z,389
2022-07-26T09:43:30.176Z,396
2022-07-26T09:44:21.962Z,392
2022-07-26T09:45:13.940Z,390
2022-07-26T09:46:06.067Z,392
2022-07-26T09:46:57.775Z,391
2022-07-26T09:47:49.606Z,391
2022-07-26T09:49:08.095Z,384
2022-07-26T09:49:40.719Z,384
2022-07-26T09:50:25.311Z,380
2022-07-26T09:51:17.168Z,389
2022-07-26T09:52:09.050Z,395
2022-07-26T09:53:00.942Z,393
2022-07-26T09:53:52.829Z,391
2022-07-26T09:54:44.727Z,394
2022-07-26T09:55:44.194Z,397
2022-07-26T09:56:28.516Z,396
2022-07-26T09:57:20.395Z,392
2022-07-26T09:58:12.316Z,389
2022-07-26T09:59:04.195Z,391
2022-07-26T09:59:56.082Z,390
2022-07-26T10:00:47.968Z,395
2022-07-26T10:01:39.925Z,405
2022-07-26T10:02:31.711Z,412
2022-07-26T10:03:23.642Z,413
2022-07-26T10:04:15.512Z,415
2022-07-26T10:05:07.408Z,408
2022-07-26T10:05:59.264Z,405
2022-07-26T10:06:51.164Z,392
2022-07-26T10:07:43.200Z,404
2022-07-26T10:08:34.928Z,407
2022-07-26T10:09:26.778Z,401
2022-07-26T10:10:18.665Z,398
2022-07-26T10:11:10.524Z,401
2022-07-26T10:12:02.417Z,404
2022-07-26T10:12:54.273Z,411
2022-07-26T10:13:46.160Z,403
2022-07-26T10:14:38.005Z,407
2022-07-26T10:15:29.891Z,405
2022-07-26T10:16:21.685Z,423
2022-07-26T10:17:13.630Z,406
2022-07-26T10:18:05.497Z,418
2022-07-26T10:18:57.376Z,409
2022-07-26T10:19:49.221Z,410
2022-07-26T10:20:41.037Z,407
2022-07-26T10:21:32.960Z,400
2022-07-26T10:22:24.837Z,394
2022-07-26T10:23:16.701Z,396
2022-07-26T10:24:08.930Z,400
2022-07-26T10:25:00.438Z,427
2022-07-26T10:25:52.319Z,406
2022-07-26T10:26:44.610Z,395
2022-07-26T10:27:36.080Z,398
2022-07-26T10:28:27.896Z,395
2022-07-26T10:29:19.769Z,400
2022-07-26T10:30:11.560Z,394
2022-07-26T10:31:03.557Z,390
2022-07-26T10:31:55.350Z,395
2022-07-26T10:32:47.224Z,398
2022-07-26T10:33:39.083Z,391
2022-07-26T10:34:30.970Z,384
2022-07-26T10:35:22.767Z,394
2022-07-26T10:36:14.714Z,400
2022-07-26T10:37:06.564Z,404
2022-07-26T10:37:58.432Z,407
2022-07-26T10:38:50.285Z,399
2022-07-26T10:39:42.080Z,387
2022-07-26T10:40:34.020Z,394
2022-07-26T10:41:25.907Z,389
2022-07-26T10:42:17.763Z,386
2022-07-26T10:43:37.991Z,384
2022-07-26T10:44:01.556Z,387
2022-07-26T10:44:53.408Z,384
2022-07-26T10:45:45.250Z,386
2022-07-26T10:46:37.230Z,389
2022-07-26T10:47:34.854Z,394
2022-07-26T10:48:20.883Z,397
2022-07-26T10:49:12.814Z,403
2022-07-26T10:50:04.611Z,397
2022-07-26T10:50:56.460Z,399
2022-07-26T10:51:48.336Z,403
2022-07-26T10:52:40.194Z,395
2022-07-26T10:53:31.997Z,384
2022-07-26T10:54:23.941Z,382
2022-07-26T10:55:15.818Z,374
2022-07-26T10:56:07.666Z,376
2022-07-26T10:56:59.548Z,382
2022-07-26T10:57:51.402Z,386
2022-07-26T10:58:43.284Z,382
2022-07-26T10:59:54.775Z,384
2022-07-26T11:00:27.038Z,391
2022-07-26T11:01:18.986Z,392
2022-07-26T11:02:10.870Z,386
2022-07-26T11:03:02.701Z,386
2022-07-26T11:03:54.526Z,384
2022-07-26T11:04:46.378Z,383
2022-07-26T11:05:38.264Z,374
2022-07-26T11:06:30.137Z,380
2022-07-26T11:07:21.920Z,379
2022-07-26T11:08:13.873Z,371
2022-07-26T11:09:05.758Z,378
2022-07-26T11:09:57.618Z,378
2022-07-26T11:10:49.505Z,376
2022-07-26T11:11:46.977Z,381
2022-07-26T11:12:33.256Z,388
2022-07-26T11:13:25.115Z,384
2022-07-26T11:14:17.791Z,386
2022-07-26T11:15:08.854Z,386
2022-07-26T11:16:00.786Z,390
2022-07-26T11:16:52.604Z,390
2022-07-26T11:17:44.495Z,390
2022-07-26T11:18:36.364Z,380
2022-07-26T11:19:28.246Z,380
2022-07-26T11:20:20.106Z,379
2022-07-26T11:21:11.900Z,386
2022-07-26T11:22:03.868Z,383
2022-07-26T11:22:55.730Z,384
2022-07-26T11:23:47.601Z,392
2022-07-26T11:24:39.497Z,390
2022-07-26T11:25:31.345Z,399
2022-07-26T11:26:23.222Z,400
2022-07-26T11:27:15.086Z,407
2022-07-26T11:28:07.354Z,402
2022-07-26T11:28:58.843Z,399
2022-07-26T11:29:50.715Z,400
2022-07-26T11:30:42.650Z,392
2022-07-26T11:31:55.871Z,403
2022-07-26T11:32:26.341Z,399
2022-07-26T11:33:18.219Z,401
2022-07-26T11:34:11.410Z,403
2022-07-26T11:35:01.863Z,400
2022-07-26T11:35:53.792Z,397
2022-07-26T11:36:45.669Z,390
2022-07-26T11:37:37.547Z,380
2022-07-26T11:38:29.409Z,374
2022-07-26T11:39:21.285Z,385
2022-07-26T11:40:13.100Z,385
2022-07-26T11:41:05.039Z,392
2022-07-26T11:41:56.924Z,387
2022-07-26T11:42:48.792Z,387
2022-07-26T11:43:40.677Z,388
2022-07-26T11:44:32.535Z,381
2022-07-26T11:45:24.451Z,391
2022-07-26T11:46:16.334Z,392
2022-07-26T11:47:08.187Z,389
2022-07-26T11:48:00.075Z,391
2022-07-26T11:48:51.951Z,396
2022-07-26T11:50:00.593Z,386
2022-07-26T11:50:35.711Z,388
2022-07-26T11:51:27.575Z,384
2022-07-26T11:52:25.312Z,398
2022-07-26T11:53:11.247Z,397
2022-07-26T11:54:03.197Z,402
2022-07-26T11:54:55.089Z,398